sim
Sign-in with your pilot id or email,
or register
Callsign
Passwort

Schedule Details

Flight Number: RYR8182 (2)
Departure: London Stansted Airport (EGSS) at 14:10
Arrival: Fuerteventura Airport (GCFV) at 18:20
Route: Ryanair Passenger Schedule. Enter filed route here before submitting Pirep.

Weather Information
Getting current METAR information for EGSS 182020Z AUTO 04008KT 9999 NCD 11/06 Q1026
Getting current METAR information for GCFV 182030Z 36014KT 9999 FEW045 18/11 Q1019

Schedule Frequency

Route Map